Terminal Aerodrome Forecast
Issued by NWS Louisville, KY

Home | Current Version | Previous Version | Text Only | Print | Product List | Glossary On
Versions: 1 2 3 4 5 6 7 8 9 10 11 12 13 14 15 16 17 18
000
FTUS43 KLMK 281100
TAFSDF
TAF
KSDF 281136Z 2812/0118 06006KT P6SM BKN050
     FM281600 09007KT P6SM FEW020 BKN060
     FM282300 09005KT P6SM VCSH BKN020
     FM010500 10005KT 4SM -SN BKN015
     FM011400 14005KT 5SM -RA BR BKN012=

USA.gov is the U.S. government's official web portal to all federal, state and local government web resources and services.